createdAt,value
2018-08-16T00:01:56.147Z,10.90
2018-08-16T00:04:24.419Z,9.40
2018-08-16T00:06:52.707Z,13.03
2018-08-16T00:09:20.977Z,10.10
2018-08-16T00:11:49.253Z,10.13
2018-08-16T00:14:18.554Z,46.17
2018-08-16T00:16:46.862Z,16.17
2018-08-16T00:19:15.131Z,12.83
2018-08-16T00:21:43.435Z,12.20
2018-08-16T00:24:11.868Z,9.23
2018-08-16T00:26:40.268Z,15.40
2018-08-16T00:29:08.586Z,20.30
2018-08-16T00:31:36.919Z,12.67
2018-08-16T00:34:05.234Z,10.20
2018-08-16T00:36:33.562Z,12.03
2018-08-16T00:39:02.123Z,9.50
2018-08-16T00:41:30.412Z,14.23
2018-08-16T00:43:58.828Z,14.77
2018-08-16T00:46:27.139Z,14.00
2018-08-16T00:48:55.383Z,16.50
2018-08-16T00:51:23.663Z,15.20
2018-08-16T00:53:51.947Z,8.77
2018-08-16T00:56:20.323Z,16.20
2018-08-16T00:58:48.591Z,10.73
2018-08-16T01:01:16.886Z,14.07
2018-08-16T01:03:48.530Z,17.93
2018-08-16T01:06:16.782Z,15.13
2018-08-16T01:08:45.062Z,13.10
2018-08-16T01:11:13.336Z,10.90
2018-08-16T01:13:41.635Z,16.13
2018-08-16T01:16:09.947Z,15.53
2018-08-16T01:18:38.215Z,14.90
2018-08-16T01:21:06.539Z,9.10
2018-08-16T01:23:34.937Z,11.13
2018-08-16T01:26:03.204Z,11.47
2018-08-16T01:28:31.482Z,11.20
2018-08-16T01:30:59.759Z,12.90
2018-08-16T01:33:28.062Z,7.90
2018-08-16T01:35:56.575Z,13.73
2018-08-16T01:38:24.872Z,13.33
2018-08-16T01:40:53.146Z,12.83
2018-08-16T01:43:21.420Z,12.83
2018-08-16T01:45:49.704Z,15.60
2018-08-16T01:48:17.978Z,12.60
2018-08-16T01:50:46.321Z,15.70
2018-08-16T01:53:14.530Z,11.37
2018-08-16T01:55:42.782Z,14.37
2018-08-16T01:58:11.030Z,9.47
2018-08-16T02:00:39.965Z,12.23
2018-08-16T02:03:08.656Z,12.63
2018-08-16T02:05:37.473Z,11.90
2018-08-16T02:08:05.941Z,20.73
2018-08-16T02:10:35.951Z,11.00
2018-08-16T02:13:04.426Z,10.87
2018-08-16T02:15:32.696Z,10.97
2018-08-16T02:18:01.284Z,15.00
2018-08-16T02:20:29.567Z,16.43
2018-08-16T02:22:57.831Z,10.43
2018-08-16T02:25:26.107Z,17.50
2018-08-16T02:27:54.427Z,13.83
2018-08-16T02:30:22.688Z,18.30
2018-08-16T02:32:50.991Z,12.60
2018-08-16T02:35:19.296Z,13.20
2018-08-16T02:37:47.608Z,11.07
2018-08-16T02:40:15.854Z,15.50
2018-08-16T02:42:44.331Z,13.40
2018-08-16T02:45:12.799Z,12.47
2018-08-16T02:47:41.297Z,12.53
2018-08-16T02:50:09.591Z,19.77
2018-08-16T02:52:37.875Z,14.40
2018-08-16T02:55:06.760Z,11.93
2018-08-16T02:57:35.033Z,13.90
2018-08-16T03:00:03.330Z,16.27
2018-08-16T03:02:31.580Z,14.00
2018-08-16T03:05:00.022Z,13.20
2018-08-16T03:07:28.838Z,11.90
2018-08-16T03:09:57.137Z,11.63
2018-08-16T03:12:25.387Z,16.10
2018-08-16T03:14:53.656Z,10.67
2018-08-16T03:17:21.934Z,13.87
2018-08-16T03:19:50.485Z,13.80
2018-08-16T03:22:18.739Z,14.60
2018-08-16T03:24:47.022Z,10.40
2018-08-16T03:27:15.331Z,12.37
2018-08-16T03:29:43.616Z,14.23
2018-08-16T03:32:11.911Z,10.53
2018-08-16T03:34:40.232Z,12.10
2018-08-16T03:37:08.494Z,13.47
2018-08-16T03:39:36.793Z,17.63
2018-08-16T03:42:05.037Z,11.40
2018-08-16T03:44:33.331Z,11.03
2018-08-16T03:47:01.610Z,12.63
2018-08-16T03:49:29.886Z,15.23
2018-08-16T03:51:58.171Z,12.03
2018-08-16T03:54:26.483Z,11.93
2018-08-16T03:56:54.740Z,14.63
2018-08-16T03:59:23.025Z,18.10
2018-08-16T04:01:51.293Z,13.40
2018-08-16T04:04:19.696Z,10.27
2018-08-16T04:06:48.018Z,11.70
2018-08-16T04:09:16.255Z,15.83
2018-08-16T04:11:44.630Z,8.60
2018-08-16T04:14:14.478Z,13.30
2018-08-16T04:16:42.747Z,11.70
2018-08-16T04:19:12.808Z,11.70
2018-08-16T04:21:41.318Z,13.03
2018-08-16T04:24:09.586Z,16.10
2018-08-16T04:26:37.907Z,12.53
2018-08-16T04:29:06.208Z,14.80
2018-08-16T04:31:34.571Z,9.30
2018-08-16T04:34:02.865Z,14.00
2018-08-16T04:36:31.131Z,12.60
2018-08-16T04:38:59.440Z,10.00
2018-08-16T04:41:27.804Z,11.80
2018-08-16T04:43:56.025Z,13.73
2018-08-16T04:46:24.374Z,14.37
2018-08-16T04:48:52.962Z,12.40
2018-08-16T04:51:21.242Z,10.77
2018-08-16T04:53:49.542Z,10.43
2018-08-16T04:56:18.243Z,11.90
2018-08-16T04:58:46.582Z,13.37
2018-08-16T05:01:15.753Z,20.93
2018-08-16T05:03:44.047Z,13.60
2018-08-16T05:06:13.895Z,10.03
2018-08-16T05:08:42.578Z,12.33
2018-08-16T05:11:11.441Z,14.63
2018-08-16T05:13:40.279Z,15.57
2018-08-16T05:16:08.586Z,16.03
2018-08-16T05:18:36.837Z,14.53
2018-08-16T05:21:05.163Z,20.63
2018-08-16T05:23:33.442Z,19.20
2018-08-16T05:26:01.723Z,18.63
2018-08-16T05:28:30.071Z,13.90
2018-08-16T05:30:58.479Z,13.27
2018-08-16T05:33:26.909Z,12.00
2018-08-16T05:35:55.214Z,14.87
2018-08-16T05:38:23.518Z,12.67
2018-08-16T05:40:51.751Z,14.60
2018-08-16T05:43:20.439Z,18.93
2018-08-16T05:45:49.175Z,16.10
2018-08-16T05:48:18.198Z,19.07
2018-08-16T05:50:46.510Z,16.33
2018-08-16T05:53:17.148Z,17.77
2018-08-16T05:55:45.410Z,17.93
2018-08-16T05:58:15.944Z,14.97
2018-08-16T06:00:44.393Z,16.43
2018-08-16T06:03:15.798Z,15.43
2018-08-16T06:05:44.132Z,16.07
2018-08-16T06:08:14.251Z,20.93
2018-08-16T06:10:42.585Z,16.10
2018-08-16T06:13:10.852Z,16.60
2018-08-16T06:15:39.226Z,17.37
2018-08-16T06:18:07.526Z,18.37
2018-08-16T06:20:36.256Z,20.47
2018-08-16T06:23:04.555Z,15.20
2018-08-16T06:25:32.902Z,13.00
2018-08-16T06:28:01.216Z,18.10
2018-08-16T06:30:29.599Z,16.90
2018-08-16T06:32:57.986Z,15.93
2018-08-16T06:35:26.601Z,19.37
2018-08-16T06:37:55.099Z,15.33
2018-08-16T06:40:23.488Z,14.40
2018-08-16T06:42:52.074Z,18.90
2018-08-16T06:45:20.916Z,15.50
2018-08-16T06:47:49.348Z,14.83
2018-08-16T06:50:18.919Z,14.13
2018-08-16T06:52:48.044Z,23.63
2018-08-16T06:55:17.805Z,19.53
2018-08-16T06:57:46.647Z,15.80
2018-08-16T07:00:15.363Z,18.30
2018-08-16T07:02:44.094Z,16.60
2018-08-16T07:05:12.604Z,12.77
2018-08-16T07:07:41.121Z,15.60
2018-08-16T07:10:11.146Z,18.80
2018-08-16T07:12:39.837Z,18.60
2018-08-16T07:15:11.926Z,19.93
2018-08-16T07:17:40.559Z,15.77
2018-08-16T07:20:09.637Z,14.30
2018-08-16T07:22:38.155Z,20.10
2018-08-16T07:25:07.768Z,20.33
2018-08-16T07:27:36.332Z,15.20
2018-08-16T07:30:06.355Z,20.73
2018-08-16T07:32:34.673Z,19.10
2018-08-16T07:35:03.131Z,18.43
2018-08-16T07:37:32.189Z,21.40
2018-08-16T07:40:06.373Z,20.63
2018-08-16T07:42:36.812Z,17.13
2018-08-16T07:45:07.592Z,22.97
2018-08-16T07:47:36.298Z,20.47
2018-08-16T07:50:06.251Z,26.17
2018-08-16T07:52:34.683Z,22.57
2018-08-16T07:55:03.545Z,24.17
2018-08-16T08:10:48.419Z,17.53
2018-08-16T08:13:17.160Z,19.43
2018-08-16T08:15:46.118Z,18.90
2018-08-16T08:18:14.637Z,20.83
2018-08-16T08:20:42.984Z,21.97
2018-08-16T08:23:11.661Z,17.53
2018-08-16T08:25:40.132Z,20.83
2018-08-16T08:28:08.711Z,17.53
2018-08-16T08:30:37.255Z,15.70
2018-08-16T08:33:05.797Z,23.90
2018-08-16T08:35:34.172Z,15.87
2018-08-16T08:38:21.162Z,19.57
2018-08-16T08:40:49.727Z,16.90
2018-08-16T08:43:30.087Z,19.63
2018-08-16T08:45:58.615Z,13.03
2018-08-16T08:48:27.096Z,17.23
2018-08-16T08:50:56.475Z,18.40
2018-08-16T08:55:38.868Z,18.37
2018-08-16T08:58:18.574Z,13.97
2018-08-16T09:00:47.067Z,15.83
2018-08-16T09:03:15.547Z,16.27
2018-08-16T09:05:43.841Z,15.83
2018-08-16T09:08:12.804Z,14.23
2018-08-16T09:10:53.113Z,12.93
2018-08-16T09:13:33.964Z,14.40
2018-08-16T09:16:04.500Z,14.30
2018-08-16T09:18:35.043Z,13.83
2018-08-16T09:21:03.456Z,24.57
2018-08-16T09:23:32.117Z,18.10
2018-08-16T09:26:00.823Z,15.17
2018-08-16T09:28:29.240Z,15.13
2018-08-16T09:31:08.835Z,10.00
2018-08-16T09:33:48.451Z,13.20
2018-08-16T09:36:17.232Z,21.47
2018-08-16T09:38:46.049Z,15.67
2018-08-16T09:41:14.900Z,14.57
2018-08-16T09:43:43.364Z,20.40
2018-08-16T09:47:21.503Z,19.03
2018-08-16T09:49:51.103Z,22.20
2018-08-16T09:52:21.090Z,21.30
2018-08-16T09:54:54.829Z,19.70
2018-08-16T09:57:23.314Z,13.37
2018-08-16T09:59:52.236Z,10.63
2018-08-16T10:02:20.673Z,11.83
2018-08-16T10:04:49.108Z,13.40
2018-08-16T10:07:17.963Z,15.00
2018-08-16T10:09:46.305Z,12.07
2018-08-16T10:12:15.080Z,21.37
2018-08-16T10:14:43.602Z,11.60
2018-08-16T10:17:12.010Z,11.83
2018-08-16T10:19:40.943Z,9.80
2018-08-16T10:22:09.662Z,13.37
2018-08-16T10:24:38.532Z,17.07
2018-08-16T10:27:07.113Z,21.73
2018-08-16T10:29:35.569Z,14.53
2018-08-16T10:32:03.952Z,12.87
2018-08-16T10:34:33.125Z,14.87
2018-08-16T10:37:01.608Z,15.17
2018-08-16T10:39:30.596Z,17.97
2018-08-16T10:41:59.295Z,13.57
2018-08-16T10:44:28.193Z,9.00
2018-08-16T10:46:56.882Z,10.63
2018-08-16T10:49:25.601Z,11.37
2018-08-16T10:51:54.364Z,10.90
2018-08-16T10:54:23.240Z,11.33
2018-08-16T10:56:51.749Z,13.13
2018-08-16T10:59:20.385Z,8.70
2018-08-16T11:01:48.890Z,15.63
2018-08-16T11:04:17.443Z,11.40
2018-08-16T11:06:45.773Z,10.80
2018-08-16T11:09:14.083Z,15.30
2018-08-16T11:11:42.381Z,13.43
2018-08-16T11:14:10.766Z,15.00
2018-08-16T11:16:39.110Z,12.27
2018-08-16T11:19:07.888Z,10.43
2018-08-16T11:21:39.292Z,10.87
2018-08-16T11:24:10.512Z,10.47
2018-08-16T11:26:39.220Z,11.30
2018-08-16T11:29:08.151Z,14.43
2018-08-16T11:34:18.520Z,18.53
2018-08-16T11:36:47.219Z,11.77
2018-08-16T11:39:16.263Z,12.00
2018-08-16T11:41:44.912Z,14.63
2018-08-16T11:44:13.488Z,11.70
2018-08-16T11:46:41.968Z,12.10
2018-08-16T11:49:10.218Z,10.60
2018-08-16T11:51:39.563Z,14.07
2018-08-16T11:54:08.941Z,14.33
2018-08-16T11:56:37.376Z,22.13
2018-08-16T11:59:05.888Z,10.27
2018-08-16T12:01:34.367Z,15.53
2018-08-16T12:04:02.836Z,12.00
2018-08-16T12:06:31.223Z,15.17
2018-08-16T12:08:59.862Z,11.70
2018-08-16T12:11:28.232Z,14.50
2018-08-16T12:13:56.757Z,12.53
2018-08-16T12:16:25.556Z,12.67
2018-08-16T12:18:53.972Z,12.23
2018-08-16T12:21:22.571Z,11.50
2018-08-16T12:23:51.159Z,20.80
2018-08-16T12:26:19.483Z,14.60
2018-08-16T12:28:47.968Z,11.17
2018-08-16T12:31:16.608Z,9.50
2018-08-16T12:33:45.180Z,16.50
2018-08-16T12:36:13.784Z,15.33
2018-08-16T12:38:42.341Z,9.70
2018-08-16T12:41:12.905Z,16.33
2018-08-16T12:43:41.689Z,8.80
2018-08-16T12:46:10.254Z,8.40
2018-08-16T12:48:38.559Z,10.07
2018-08-16T12:51:07.086Z,16.47
2018-08-16T12:53:35.426Z,11.30
2018-08-16T12:56:03.658Z,7.20
2018-08-16T12:58:31.954Z,13.80
2018-08-16T13:01:00.240Z,11.27
2018-08-16T13:03:28.505Z,9.47
2018-08-16T13:05:56.806Z,15.53
2018-08-16T13:08:25.208Z,9.97
2018-08-16T13:10:53.502Z,11.77
2018-08-16T13:13:21.830Z,12.97
2018-08-16T13:15:50.398Z,16.40
2018-08-16T13:18:18.657Z,15.70
2018-08-16T13:20:48.190Z,10.30
2018-08-16T13:23:17.495Z,9.43
2018-08-16T13:25:45.836Z,15.33
2018-08-16T13:28:15.202Z,17.70
2018-08-16T13:30:43.536Z,8.50
2018-08-16T13:33:12.107Z,10.73
2018-08-16T13:35:42.432Z,8.50
2018-08-16T13:38:10.705Z,8.47
2018-08-16T13:40:39.018Z,10.03
2018-08-16T13:43:07.417Z,8.70
2018-08-16T13:45:35.799Z,7.43
2018-08-16T13:48:04.427Z,8.10
2018-08-16T13:50:32.857Z,17.93
2018-08-16T13:53:01.102Z,13.73
2018-08-16T13:55:29.406Z,11.07
2018-08-16T13:57:57.687Z,8.70
2018-08-16T14:00:25.929Z,13.20
2018-08-16T14:02:54.194Z,15.60
2018-08-16T14:05:22.452Z,7.70
2018-08-16T14:07:50.708Z,11.53
2018-08-16T14:10:19.047Z,8.60
2018-08-16T14:12:47.699Z,7.60
2018-08-16T14:15:15.973Z,7.40
2018-08-16T14:17:44.255Z,15.17
2018-08-16T14:20:12.595Z,6.83
2018-08-16T14:22:40.874Z,11.73
2018-08-16T14:25:09.138Z,10.77
2018-08-16T14:27:37.386Z,10.27
2018-08-16T14:30:06.549Z,7.00
2018-08-16T14:32:34.858Z,9.97
2018-08-16T14:35:03.163Z,10.07
2018-08-16T14:37:31.443Z,7.00
2018-08-16T14:39:59.694Z,9.40
2018-08-16T14:42:27.990Z,8.67
2018-08-16T14:44:56.507Z,8.37
2018-08-16T14:47:25.073Z,7.00
2018-08-16T14:49:53.673Z,7.70
2018-08-16T14:52:21.923Z,7.40
2018-08-16T14:54:51.543Z,9.53
2018-08-16T14:57:19.957Z,9.60
2018-08-16T14:59:48.319Z,8.50
2018-08-16T15:02:16.548Z,9.80
2018-08-16T15:04:44.893Z,10.00
2018-08-16T15:07:13.146Z,6.20
2018-08-16T15:09:41.427Z,10.50
2018-08-16T15:12:09.797Z,6.53
2018-08-16T15:14:38.166Z,14.57
2018-08-16T15:17:06.442Z,13.90
2018-08-16T15:19:34.808Z,18.53
2018-08-16T15:22:03.115Z,7.57
2018-08-16T15:27:53.692Z,10.33
2018-08-16T15:30:21.942Z,7.83
2018-08-16T15:32:50.246Z,8.60
2018-08-16T15:35:18.469Z,9.90
2018-08-16T15:37:46.774Z,8.10
2018-08-16T15:40:15.255Z,14.10
2018-08-16T15:42:43.491Z,7.63
2018-08-16T15:45:12.876Z,10.67
2018-08-16T15:47:41.109Z,10.77
2018-08-16T15:50:10.842Z,5.90
2018-08-16T15:52:39.482Z,6.90
2018-08-16T15:55:07.737Z,9.57
2018-08-16T15:57:36.217Z,12.50
2018-08-16T16:00:05.322Z,10.00
2018-08-16T16:02:33.539Z,7.93
2018-08-16T16:05:01.775Z,8.80
2018-08-16T16:07:30.054Z,15.57
2018-08-16T16:09:58.342Z,9.40
2018-08-16T16:12:26.594Z,24.13
2018-08-16T16:14:54.869Z,10.57
2018-08-16T16:17:23.280Z,16.63
2018-08-16T16:19:51.468Z,10.30
2018-08-16T16:22:19.785Z,10.97
2018-08-16T16:24:48.490Z,10.80
2018-08-16T16:27:17.281Z,9.10
2018-08-16T16:29:45.585Z,10.10
2018-08-16T16:32:14.369Z,20.30
2018-08-16T16:34:42.738Z,9.97
2018-08-16T16:37:11.719Z,11.17
2018-08-16T16:39:40.483Z,11.50
2018-08-16T16:42:08.882Z,15.50
2018-08-16T16:44:37.190Z,7.70
2018-08-16T16:47:06.150Z,10.80
2018-08-16T16:49:34.466Z,12.60
2018-08-16T16:52:02.775Z,15.13
2018-08-16T16:54:31.086Z,11.20
2018-08-16T16:56:59.367Z,8.87
2018-08-16T16:59:27.703Z,12.57
2018-08-16T17:01:56.021Z,12.87
2018-08-16T17:04:25.137Z,9.00
2018-08-16T17:06:53.482Z,13.30
2018-08-16T17:09:24.866Z,18.73
2018-08-16T17:11:53.321Z,18.23
2018-08-16T17:14:21.614Z,23.30
2018-08-16T17:16:50.230Z,25.80
2018-08-16T17:19:18.828Z,12.13
2018-08-16T17:21:48.908Z,13.03
2018-08-16T17:24:19.140Z,13.20
2018-08-16T17:26:47.493Z,24.13
2018-08-16T17:29:16.316Z,19.03
2018-08-16T17:31:44.594Z,26.70
2018-08-16T17:34:12.947Z,13.40
2018-08-16T17:36:57.402Z,22.77
2018-08-16T17:39:25.903Z,16.23
2018-08-16T17:41:54.159Z,16.43
2018-08-16T17:44:22.491Z,26.73
2018-08-16T17:46:50.794Z,11.83
2018-08-16T17:49:34.904Z,16.40
2018-08-16T17:52:03.360Z,21.63
2018-08-16T17:54:31.542Z,20.00
2018-08-16T17:56:59.879Z,19.60
2018-08-16T17:59:28.210Z,17.47
2018-08-16T18:01:56.515Z,17.00
2018-08-16T18:04:24.862Z,24.63
2018-08-16T18:06:53.270Z,15.93
2018-08-16T18:09:22.169Z,24.43
2018-08-16T18:12:00.833Z,20.93
2018-08-16T18:14:29.136Z,25.33
2018-08-16T18:16:57.411Z,21.13
2018-08-16T18:19:25.712Z,22.33
2018-08-16T18:21:54.207Z,21.10
2018-08-16T18:24:24.352Z,13.50
2018-08-16T18:26:52.968Z,21.60
2018-08-16T18:29:21.810Z,17.07
2018-08-16T18:31:52.606Z,13.10
2018-08-16T18:34:20.894Z,13.97
2018-08-16T18:36:49.319Z,19.30
2018-08-16T18:39:17.539Z,19.33
2018-08-16T18:41:46.003Z,17.90
2018-08-16T18:44:14.282Z,16.40
2018-08-16T18:46:42.553Z,16.30
2018-08-16T18:49:10.858Z,18.30
2018-08-16T18:51:39.121Z,21.13
2018-08-16T18:54:07.382Z,19.67
2018-08-16T18:56:35.690Z,16.30
2018-08-16T18:59:04.185Z,18.57
2018-08-16T19:01:32.685Z,19.90
2018-08-16T19:04:00.972Z,21.33
2018-08-16T19:06:29.283Z,19.27
2018-08-16T19:08:57.933Z,15.83
2018-08-16T19:11:26.163Z,20.43
2018-08-16T19:13:54.983Z,19.30
2018-08-16T19:16:23.629Z,18.60
2018-08-16T19:19:04.733Z,23.77
2018-08-16T19:21:40.479Z,16.60
2018-08-16T19:24:13.553Z,25.30
2018-08-16T19:26:45.764Z,18.80
2018-08-16T19:29:14.784Z,30.37
2018-08-16T19:31:43.573Z,17.57
2018-08-16T19:34:12.323Z,27.63
2018-08-16T19:36:42.181Z,16.33
2018-08-16T19:39:12.624Z,22.73
2018-08-16T19:41:41.316Z,19.53
2018-08-16T19:44:10.724Z,14.90
2018-08-16T19:46:39.302Z,25.80
2018-08-16T19:49:08.238Z,23.57
2018-08-16T19:51:36.607Z,21.53
2018-08-16T19:54:04.901Z,18.33
2018-08-16T19:56:33.567Z,22.63
2018-08-16T19:59:02.038Z,24.60
2018-08-16T20:01:30.523Z,22.70
2018-08-16T20:03:59.543Z,21.40
2018-08-16T20:06:27.960Z,24.13
2018-08-16T20:08:56.280Z,20.83
2018-08-16T20:11:24.848Z,20.03
2018-08-16T20:13:53.298Z,27.13
2018-08-16T20:16:21.571Z,31.17
2018-08-16T20:18:50.053Z,22.40
2018-08-16T20:21:18.671Z,18.07
2018-08-16T20:23:47.636Z,27.03
2018-08-16T20:26:16.230Z,20.73
2018-08-16T20:28:45.588Z,21.40
2018-08-16T20:31:14.397Z,21.87
2018-08-16T20:33:42.963Z,24.00
2018-08-16T20:36:11.853Z,27.30
2018-08-16T20:38:40.529Z,24.13
2018-08-16T20:41:10.857Z,29.23
2018-08-16T20:43:39.547Z,21.83
2018-08-16T20:46:08.309Z,22.10
2018-08-16T20:48:37.131Z,23.07
2018-08-16T20:51:05.946Z,21.87
2018-08-16T20:53:39.653Z,25.83
2018-08-16T20:56:09.373Z,19.10
2018-08-16T20:58:38.791Z,18.73
2018-08-16T21:01:08.828Z,27.07
2018-08-16T21:03:37.889Z,18.50
2018-08-16T21:06:07.748Z,21.73
2018-08-16T21:08:36.435Z,19.10
2018-08-16T21:11:05.336Z,30.60
2018-08-16T21:13:34.222Z,26.90
2018-08-16T21:16:04.871Z,27.47
2018-08-16T21:18:34.616Z,19.23
2018-08-16T21:21:03.235Z,27.23
2018-08-16T21:23:35.392Z,28.50
2018-08-16T21:26:03.800Z,19.10
2018-08-16T21:28:32.377Z,27.70
2018-08-16T21:31:01.663Z,23.03
2018-08-16T21:33:31.420Z,20.17
2018-08-16T21:36:00.500Z,32.70
2018-08-16T21:38:33.061Z,23.30
2018-08-16T21:41:01.710Z,27.80
2018-08-16T21:43:31.387Z,20.50
2018-08-16T21:46:00.130Z,25.60
2018-08-16T21:48:30.683Z,22.77
2018-08-16T21:50:59.509Z,25.10
2018-08-16T21:53:28.249Z,25.13
2018-08-16T21:55:58.503Z,26.17
2018-08-16T21:58:27.214Z,25.03
2018-08-16T22:00:58.688Z,22.33
2018-08-16T22:03:28.673Z,22.70
2018-08-16T22:06:02.832Z,22.30
2018-08-16T22:08:52.336Z,23.23
2018-08-16T22:11:23.970Z,32.83
2018-08-16T22:13:54.562Z,19.60
2018-08-16T22:16:24.090Z,27.63
2018-08-16T22:18:52.798Z,27.93
2018-08-16T22:21:21.621Z,25.80
2018-08-16T22:23:50.110Z,25.10
2018-08-16T22:26:19.471Z,22.37
2018-08-16T22:28:48.450Z,21.53
2018-08-16T22:31:17.161Z,17.80
2018-08-16T22:33:46.012Z,28.43
2018-08-16T22:36:14.709Z,21.90
2018-08-16T22:38:44.981Z,21.73
2018-08-16T22:41:13.915Z,27.93
2018-08-16T22:43:42.921Z,24.57
2018-08-16T22:46:12.455Z,26.03
2018-08-16T22:48:41.419Z,22.87
2018-08-16T22:51:09.967Z,23.80
2018-08-16T22:53:38.649Z,25.87
2018-08-16T22:56:08.892Z,20.67
2018-08-16T22:58:39.135Z,19.77
2018-08-16T23:01:08.114Z,20.80
2018-08-16T23:03:37.482Z,25.37
2018-08-16T23:06:06.748Z,21.30
2018-08-16T23:08:36.035Z,24.90
2018-08-16T23:11:06.728Z,26.73
2018-08-16T23:13:35.335Z,29.30
2018-08-16T23:16:03.962Z,19.93
2018-08-16T23:18:32.831Z,21.00
2018-08-16T23:21:02.049Z,19.63
2018-08-16T23:23:31.461Z,23.53
2018-08-16T23:26:00.151Z,22.07
2018-08-16T23:28:29.648Z,20.13
2018-08-16T23:30:58.783Z,21.20
2018-08-16T23:33:28.590Z,24.13
2018-08-16T23:35:57.462Z,22.90
2018-08-16T23:38:25.862Z,22.03
2018-08-16T23:40:54.205Z,21.50
2018-08-16T23:43:22.570Z,25.97
2018-08-16T23:45:52.194Z,22.93
2018-08-16T23:48:29.017Z,22.27
2018-08-16T23:50:57.401Z,20.97
2018-08-16T23:53:26.167Z,30.70
2018-08-16T23:55:54.570Z,24.03
2018-08-16T23:58:22.869Z,21.77
